Reynolds, Georgia
Current Conditions -  °F | °C
As of 1:15 PM on Friday 24 Oct 2014 (Local Time) from KPXE Reporting Station
Clear Clear  
Wind Chill: 77°   Ceiling: Unl
Heat Index: 77°   Visibility: 10mi
Dew Point: 38°   Wind: 3mph
Humidity: 25%   Direction: 30°NNE
Pressure: 30.04"   Gusts: NA
Location:  32.56°N, 84.1°W
Report Text: KPXE 241715Z AUTO 03003KT 10SM CLR 25/03 A3004 RMK AO2 T02480033
Loading
Personal Weather Stations






























Interactive Weather Map
Tropical Storm Tracking
New forecast layout! Learn more

10-Day Weather Forecast

Advertisements
Track Severe Weather on mobile